EGNS

Isle of Man Airport

Castletown, Isle of Man
METAR EGNS 190450Z 22011KT 190V250 9999 SCT023 08/03 Q0996
Observed Flight Rules
Dec-19 @ 04:50 UTC (38 minutes ago) Visual Flight Rules
Wind Visibility Clouds
220° at 11 knots 10,000+ meters
  • Scattered at 2,300' AGL
Temperatures Readings
Current 8°C / 46°F
Dewpoint 3°C / 37°F
Humidity 71%
Altimeter 29.41" Hg
Pressure 996 hPa
Elevation 17
METAR EGNS 190450Z 22011KT 190V250 9999 SCT023 08/03 Q0996
Observed Flight Rules
Dec-19 @ 04:50 UTC
(38 minutes ago)
VFR
Wind Visibility
220° at 11 knots 10,000+ meters
Clouds
  • Scattered at 2,300' AGL
Temperature Dewpoint
8°C / 46°F 3°C / 37°F
Humidity Altimeter Pressure
71% 29.41" Hg 996 hPa